Terminal Aerodrome Forecast
Issued by NWS

Current Version | Previous Version | Text Only | Print | Product List | Glossary Off
Versions: 1 2 3 4 5 6 7 8 9 10 11 12 13 14 15 16 17 18 19 20

000
FTUS41 KILN 032300
TAFLUK
TAF
KLUK 032337Z 0400/0424 05006KT P6SM VCSH SCT025 BKN040
      TEMPO 0400/0401 -SHRA BKN025
     FM040500 00000KT P6SM SCT040 BKN080
     FM040700 00000KT 4SM BR SCT015 BKN080
      TEMPO 0409/0412 2SM BR
     FM041300 01004KT P6SM SCT040
     FM041800 34006KT P6SM SCT040=

USA.gov is the U.S. government's official web portal to all federal, state and local government web resources and services.